Time;durP1;ratioP1;P1;durP2;ratioP2;P2;SDS_P1;SDS_P2;PMS_P1;PMS_P2;Temp;Humidity;BMP_temperature;BMP_pressure;BME280_temperature;BME280_humidity;BME280_pressure;Samples;Min_cycle;Max_cycle;Signal;HPM_P1;HPM_P2
2022/08/24 00:01:07;;;;;;;54.67;22.60;;;18.10;99.90;;;;;;5056483;28;20025;-57
2022/08/24 00:03:34;;;;;;;43.95;20.35;;;18.10;99.90;;;;;;5056553;28;20029;-57
2022/08/24 00:06:01;;;;;;;45.05;21.20;;;18.20;99.90;;;;;;5056405;28;20104;-57
2022/08/24 00:08:28;;;;;;;48.53;21.73;;;18.10;99.90;;;;;;5056622;28;20672;-57
2022/08/24 00:10:54;;;;;;;47.58;22.35;;;18.10;99.90;;;;;;5056475;28;20021;-57
2022/08/24 00:13:20;;;;;;;49.78;24.15;;;18.20;99.90;;;;;;5056505;28;20106;-57
2022/08/24 00:15:46;;;;;;;50.38;22.45;;;18.20;99.90;;;;;;5056475;28;20033;-57
2022/08/24 00:18:12;;;;;;;47.58;24.02;;;18.20;99.90;;;;;;5067993;28;20038;-57
2022/08/24 00:20:39;;;;;;;48.50;22.02;;;18.20;99.90;;;;;;5076386;28;20028;-57
2022/08/24 00:23:06;;;;;;;52.28;23.40;;;18.20;99.90;;;;;;5076405;28;20397;-57
2022/08/24 00:25:32;;;;;;;47.60;23.00;;;18.10;99.90;;;;;;5076498;28;20024;-57
2022/08/24 00:28:00;;;;;;;49.33;23.63;;;18.20;99.90;;;;;;5065103;28;20429;-57
2022/08/24 00:30:26;;;;;;;48.22;24.25;;;18.10;99.90;;;;;;5056390;28;20029;-57
2022/08/24 00:32:53;;;;;;;47.60;22.33;;;18.10;99.90;;;;;;5056059;28;20060;-57
2022/08/24 00:35:19;;;;;;;46.85;24.38;;;18.30;99.90;;;;;;5056093;28;20449;-57
2022/08/24 00:37:47;;;;;;;49.15;22.98;;;18.30;99.90;;;;;;5056065;28;20325;-57
2022/08/24 00:40:18;;;;;;;40.80;21.48;;;18.30;99.90;;;;;;5054642;28;20025;-57
2022/08/24 00:42:44;;;;;;;;;;;18.40;99.90;;;;;;5055350;28;20090;-57
2022/08/24 00:45:12;;;;;;;51.25;23.40;;;18.30;99.90;;;;;;5054462;28;19917;-57
2022/08/24 00:47:49;;;;;;;41.05;21.00;;;18.30;99.90;;;;;;5054620;28;20029;-57
2022/08/24 00:50:25;;;;;;;41.83;23.05;;;18.30;99.90;;;;;;5055930;28;20036;-57
2022/08/24 00:53:02;;;;;;;43.28;21.85;;;18.30;99.90;;;;;;5055563;28;20029;-57
2022/08/24 00:55:35;;;;;;;49.35;22.95;;;18.20;99.90;;;;;;5055813;28;20378;-57
2022/08/24 00:58:06;;;;;;;54.58;23.98;;;18.20;99.90;;;;;;5055757;28;20021;-57
2022/08/24 01:00:38;;;;;;;50.45;24.17;;;18.20;99.90;;;;;;5055337;28;20029;-57
2022/08/24 01:03:05;;;;;;;50.53;24.75;;;18.20;99.90;;;;;;5055353;28;20108;-57
2022/08/24 01:05:33;;;;;;;61.15;27.48;;;18.20;99.90;;;;;;5055554;28;20029;-57
2022/08/24 01:08:01;;;;;;;52.75;25.20;;;18.20;99.90;;;;;;5055374;28;20043;-57
2022/08/24 01:10:32;;;;;;;67.28;28.55;;;18.20;99.90;;;;;;5054217;28;20032;-57
2022/08/24 01:13:02;;;;;;;70.30;27.45;;;18.20;99.90;;;;;;5055163;28;20117;-57
2022/08/24 01:15:30;;;;;;;44.53;23.52;;;18.30;99.90;;;;;;5054070;28;20482;-57
2022/08/24 01:20:47;;;;;;;51.03;24.70;;;18.30;99.90;;;;;;5074008;28;20031;-57
2022/08/24 01:23:43;;;;;;;52.28;24.60;;;18.30;99.90;;;;;;5073684;28;20083;-57
2022/08/24 01:26:14;;;;;;;56.55;26.35;;;18.30;99.90;;;;;;5075139;28;20028;-57
2022/08/24 01:28:43;;;;;;;52.20;23.33;;;18.30;99.90;;;;;;5059176;28;20032;-57
2022/08/24 01:31:08;;;;;;;59.65;23.83;;;18.30;99.90;;;;;;5054948;28;20056;-57
2022/08/24 01:33:35;;;;;;;49.20;23.52;;;18.30;99.90;;;;;;5055142;28;20052;-57
2022/08/24 01:36:18;;;;;;;44.83;23.15;;;18.30;99.90;;;;;;5055155;28;20029;-57
2022/08/24 01:38:46;;;;;;;52.63;24.08;;;18.30;99.90;;;;;;5054575;28;20025;-57
2022/08/24 01:41:13;;;;;;;53.20;24.23;;;18.30;99.90;;;;;;5054957;28;20115;-57
2022/08/24 01:43:39;;;;;;;42.05;24.13;;;18.30;99.90;;;;;;5053456;28;20025;-57
2022/08/24 01:46:07;;;;;;;47.55;23.38;;;18.30;99.90;;;;;;5053436;28;20033;-57
2022/08/24 01:48:33;;;;;;;48.45;23.45;;;18.30;99.90;;;;;;5053369;28;20048;-57
2022/08/24 01:50:59;;;;;;;46.40;22.08;;;18.30;99.90;;;;;;5054937;28;20025;-56
2022/08/24 01:53:25;;;;;;;43.38;21.52;;;18.30;99.90;;;;;;5053131;28;20033;-57
2022/08/24 01:55:51;;;;;;;41.67;23.30;;;18.30;99.90;;;;;;5054442;28;20041;-57
2022/08/24 01:58:17;;;;;;;38.50;19.95;;;18.40;99.90;;;;;;5054516;28;20054;-57
2022/08/24 02:00:44;;;;;;;34.85;19.75;;;18.40;99.90;;;;;;5054613;28;20025;-57
2022/08/24 02:03:12;;;;;;;31.80;18.45;;;18.40;99.90;;;;;;5053200;28;20029;-57
2022/08/24 02:05:38;;;;;;;30.67;18.13;;;18.40;99.90;;;;;;5053117;28;20029;-57
2022/08/24 02:08:05;;;;;;;31.88;18.92;;;18.40;99.90;;;;;;5054404;28;20047;-57
2022/08/24 02:10:32;;;;;;;40.40;19.00;;;18.40;99.90;;;;;;5053238;28;20033;-57
2022/08/24 02:12:58;;;;;;;38.97;17.83;;;18.40;99.90;;;;;;5053137;28;20036;-57
2022/08/24 02:15:31;;;;;;;34.85;18.02;;;18.40;99.90;;;;;;5053271;28;20051;-57
2022/08/24 02:17:58;;;;;;;31.25;18.08;;;18.30;99.90;;;;;;5062452;28;20029;-57
2022/08/24 02:20:27;;;;;;;27.98;16.67;;;18.40;99.90;;;;;;5073054;28;20025;-57
2022/08/24 02:22:53;;;;;;;33.67;18.58;;;18.40;99.90;;;;;;5073093;28;20039;-57
2022/08/24 02:25:20;;;;;;;29.38;17.00;;;18.40;99.90;;;;;;5073031;28;20134;-56
2022/08/24 02:27:47;;;;;;;26.50;16.55;;;18.40;99.90;;;;;;5066009;28;20036;-57
2022/08/24 02:30:13;;;;;;;32.05;16.55;;;18.40;99.90;;;;;;5053065;28;20041;-57
2022/08/24 02:32:40;;;;;;;26.88;16.35;;;18.40;99.90;;;;;;5052734;28;20032;-57
2022/08/24 02:35:08;;;;;;;31.23;15.48;;;18.40;99.90;;;;;;5052935;28;20033;-57
2022/08/24 02:37:34;;;;;;;24.02;15.00;;;18.40;99.90;;;;;;5052942;28;20039;-56
2022/08/24 02:40:01;;;;;;;27.15;14.90;;;18.50;99.90;;;;;;5052748;28;20033;-56
2022/08/24 02:42:27;;;;;;;26.85;14.82;;;18.50;99.90;;;;;;5052811;28;20086;-56
2022/08/24 02:44:54;;;;;;;25.60;15.05;;;18.50;99.90;;;;;;5054098;28;20429;-56
2022/08/24 02:47:20;;;;;;;24.52;13.88;;;18.50;99.90;;;;;;5054117;28;20033;-56
2022/08/24 02:49:47;;;;;;;24.80;15.15;;;18.50;99.90;;;;;;5052678;28;20442;-56
2022/08/24 02:52:13;;;;;;;22.77;13.50;;;18.50;99.90;;;;;;5056412;28;20036;-56
2022/08/24 02:54:40;;;;;;;26.70;13.60;;;18.50;99.90;;;;;;5056745;28;20029;-56
2022/08/24 02:57:07;;;;;;;24.00;13.63;;;18.50;99.90;;;;;;5056563;28;20562;-56
2022/08/24 02:59:33;;;;;;;18.20;12.45;;;18.60;99.90;;;;;;5056633;28;20032;-57
2022/08/24 03:01:59;;;;;;;25.52;14.13;;;18.60;99.90;;;;;;5057924;28;20363;-56
2022/08/24 03:04:25;;;;;;;21.30;12.88;;;18.50;99.90;;;;;;5039561;28;20551;-56
2022/08/24 03:06:51;;;;;;;22.83;12.27;;;18.50;99.90;;;;;;5056761;28;20104;-57
2022/08/24 03:09:17;;;;;;;22.20;11.93;;;18.50;99.90;;;;;;5057908;28;20033;-57
2022/08/24 03:11:43;;;;;;;23.30;12.60;;;18.50;99.90;;;;;;5057778;28;20039;-56
2022/08/24 03:14:10;;;;;;;23.20;12.68;;;18.50;99.90;;;;;;5056411;28;20037;-56
2022/08/24 03:16:37;;;;;;;25.67;13.60;;;18.50;99.90;;;;;;5056086;28;20508;-56
2022/08/24 03:19:04;;;;;;;21.27;13.23;;;18.50;99.90;;;;;;5074937;28;20027;-56
2022/08/24 03:21:33;;;;;;;24.13;14.13;;;18.50;99.90;;;;;;5076285;28;20443;-56
2022/08/24 03:23:59;;;;;;;27.10;14.43;;;18.50;99.90;;;;;;5075968;28;20035;-56
2022/08/24 03:26:25;;;;;;;21.92;14.00;;;18.50;99.90;;;;;;5076059;28;20039;-56
2022/08/24 03:28:52;;;;;;;25.38;14.75;;;18.50;99.90;;;;;;5060038;28;20036;-56
2022/08/24 03:31:18;;;;;;;30.05;15.50;;;18.50;99.90;;;;;;5056146;28;20486;-56
2022/08/24 03:33:45;;;;;;;28.42;15.63;;;18.50;99.90;;;;;;5056040;28;20022;-56
2022/08/24 03:36:11;;;;;;;28.95;15.07;;;18.50;99.90;;;;;;5055942;28;20036;-56
2022/08/24 03:38:37;;;;;;;24.80;15.32;;;18.50;99.90;;;;;;5057070;28;20057;-56
2022/08/24 03:41:04;;;;;;;21.85;13.07;;;18.50;99.90;;;;;;5055588;28;20025;-56
2022/08/24 03:43:45;;;;;;;26.85;14.65;;;18.50;99.90;;;;;;5055818;28;20029;-56
2022/08/24 03:46:13;;;;;;;25.90;14.43;;;18.60;99.90;;;;;;5055787;28;20037;-56
2022/08/24 03:48:43;;;;;;;22.90;13.95;;;18.60;99.90;;;;;;5055733;28;20052;-57
2022/08/24 03:51:14;;;;;;;26.08;13.75;;;18.50;99.90;;;;;;5055452;28;20029;-56
2022/08/24 03:53:41;;;;;;;27.13;15.05;;;18.40;99.90;;;;;;5055492;28;20039;-56
2022/08/24 03:56:08;;;;;;;22.55;13.82;;;18.40;99.90;;;;;;5055532;28;20368;-56
2022/08/24 03:58:38;;;;;;;22.83;14.05;;;18.50;99.90;;;;;;5055405;28;20378;-56
2022/08/24 04:01:05;;;;;;;24.60;14.18;;;18.40;99.90;;;;;;5055171;28;20593;-57
2022/08/24 04:03:37;;;;;;;23.98;13.93;;;18.40;99.90;;;;;;5055416;28;20033;-56
2022/08/24 04:06:04;;;;;;;25.65;14.05;;;18.40;99.90;;;;;;5055163;28;20067;-56
2022/08/24 04:08:31;;;;;;;33.47;17.73;;;18.40;99.90;;;;;;5055254;28;20128;-56
2022/08/24 04:10:57;;;;;;;37.33;19.42;;;18.40;99.90;;;;;;5055271;28;20033;-56
2022/08/24 04:13:24;;;;;;;26.17;14.57;;;18.50;99.90;;;;;;5055123;28;20036;-56
2022/08/24 04:15:51;;;;;;;26.45;14.82;;;18.50;99.90;;;;;;5055005;28;20021;-56
2022/08/24 04:18:18;;;;;;;24.85;14.07;;;18.50;99.90;;;;;;5067326;28;20024;-56
2022/08/24 04:20:45;;;;;;;19.70;12.95;;;18.50;99.90;;;;;;5076447;28;20020;-56
2022/08/24 04:23:17;;;;;;;24.77;13.52;;;18.50;99.90;;;;;;5075263;28;20390;-57
2022/08/24 04:25:46;;;;;;;22.35;13.43;;;18.50;99.90;;;;;;5074943;28;20049;-56
2022/08/24 04:28:17;;;;;;;29.35;13.70;;;18.40;99.90;;;;;;5063066;28;20036;-57
2022/08/24 04:30:45;;;;;;;21.60;13.60;;;18.40;99.90;;;;;;5056087;28;20033;-56
2022/08/24 04:33:13;;;;;;;;;;;18.50;99.90;;;;;;5056615;28;20111;-56
2022/08/24 04:35:44;;;;;;;23.80;15.40;;;18.60;99.90;;;;;;5054790;28;19909;-57
2022/08/24 04:38:10;;;;;;;27.55;14.82;;;18.60;99.90;;;;;;5054723;28;20033;-56
2022/08/24 04:40:40;;;;;;;35.63;17.63;;;18.60;99.90;;;;;;5054537;28;20036;-56
2022/08/24 04:43:08;;;;;;;30.48;16.60;;;18.60;99.90;;;;;;5054611;28;20033;-56
2022/08/24 04:45:38;;;;;;;24.88;15.55;;;18.60;99.90;;;;;;5054684;28;20033;-56
2022/08/24 04:48:04;;;;;;;21.77;14.45;;;18.60;99.90;;;;;;5055865;28;20052;-56
2022/08/24 04:50:34;;;;;;;17.65;12.32;;;18.60;99.90;;;;;;5054434;28;20507;-56
2022/08/24 04:53:02;;;;;;;19.00;12.55;;;18.70;99.90;;;;;;5054328;28;20029;-57
2022/08/24 04:55:28;;;;;;;18.08;10.90;;;18.60;99.90;;;;;;5054426;28;20036;-56
2022/08/24 04:57:55;;;;;;;15.63;11.18;;;18.70;99.90;;;;;;5054164;28;20536;-56
2022/08/24 05:00:22;;;;;;;18.27;10.15;;;18.60;99.90;;;;;;5054329;28;20072;-56
2022/08/24 05:02:48;;;;;;;15.35;9.13;;;18.70;99.90;;;;;;5055539;28;20087;-57
2022/08/24 05:05:14;;;;;;;13.07;8.93;;;18.60;99.90;;;;;;5054114;28;20028;-56
2022/08/24 05:07:40;;;;;;;13.77;8.77;;;18.70;99.90;;;;;;5055377;28;20021;-56
2022/08/24 05:10:08;;;;;;;10.60;7.72;;;18.60;99.90;;;;;;5053815;28;20115;-56
2022/08/24 05:12:35;;;;;;;13.15;8.68;;;18.70;99.90;;;;;;5053765;28;20037;-56
2022/08/24 05:15:04;;;;;;;16.85;8.73;;;18.60;99.90;;;;;;5053764;28;20409;-56
2022/08/24 05:17:39;;;;;;;14.95;8.63;;;18.70;99.90;;;;;;5058378;28;20033;-56
2022/08/24 05:20:08;;;;;;;12.60;8.05;;;18.70;99.90;;;;;;5073344;28;20035;-57
2022/08/24 05:22:34;;;;;;;11.45;7.40;;;18.80;99.90;;;;;;5055834;28;20432;-57
2022/08/24 05:25:01;;;;;;;8.02;7.22;;;18.70;99.90;;;;;;5053614;28;20116;-56
2022/08/24 05:27:27;;;;;;;8.88;6.65;;;18.80;99.90;;;;;;5053621;28;20083;-56
2022/08/24 05:29:54;;;;;;;8.25;6.57;;;18.80;99.90;;;;;;5053523;28;20040;-56
2022/08/24 05:32:21;;;;;;;7.35;5.97;;;18.90;99.90;;;;;;5054358;28;20041;-56
2022/08/24 05:34:49;;;;;;;10.52;7.38;;;18.90;99.90;;;;;;5051995;28;20033;-56
2022/08/24 05:37:15;;;;;;;11.35;6.30;;;18.90;99.90;;;;;;5052360;28;20021;-56
2022/08/24 05:40:02;;;;;;;10.68;6.72;;;18.90;99.90;;;;;;5053233;28;20025;-56
2022/08/24 05:42:30;;;;;;;12.43;8.77;;;19.00;99.90;;;;;;5053564;28;20381;-56
2022/08/24 05:44:56;;;;;;;18.38;9.45;;;19.00;99.90;;;;;;5053352;28;20029;-56
2022/08/24 05:47:22;;;;;;;16.15;10.20;;;19.10;99.90;;;;;;5053216;28;20037;-56
2022/08/24 05:49:51;;;;;;;12.20;8.50;;;19.20;99.90;;;;;;5053186;28;20041;-56
2022/08/24 05:52:18;;;;;;;12.55;6.90;;;19.20;99.90;;;;;;5054495;28;20095;-56
2022/08/24 05:54:45;;;;;;;10.43;6.85;;;19.20;99.90;;;;;;5044611;28;20028;-56
2022/08/24 05:57:14;;;;;;;10.18;7.30;;;19.30;99.90;;;;;;5049912;28;20265;-56
2022/08/24 05:59:56;;;;;;;12.35;6.93;;;19.20;99.90;;;;;;5066750;28;20033;-56
2022/08/24 06:02:22;;;;;;;8.65;6.47;;;19.20;99.90;;;;;;5034600;28;20035;-56
2022/08/24 06:04:48;;;;;;;8.43;5.90;;;19.20;99.90;;;;;;5034536;28;20602;-56
2022/08/24 06:07:15;;;;;;;10.65;8.30;;;19.20;99.90;;;;;;5049231;28;20390;-56
2022/08/24 06:09:46;;;;;;;13.68;8.73;;;19.30;99.90;;;;;;5052974;28;20117;-56
2022/08/24 06:12:13;;;;;;;8.30;7.30;;;19.40;99.90;;;;;;5053020;28;20123;-56
2022/08/24 06:14:46;;;;;;;7.25;6.55;;;19.40;99.90;;;;;;5052855;28;20055;-57
2022/08/24 06:17:13;;;;;;;7.65;6.22;;;19.50;99.90;;;;;;5045811;28;20089;-57
2022/08/24 06:19:39;;;;;;;9.48;6.95;;;19.50;99.90;;;;;;5043662;28;20509;-56
2022/08/24 06:22:06;;;;;;;8.35;6.45;;;19.50;99.90;;;;;;5054040;28;20037;-56
2022/08/24 06:27:20;;;;;;;9.20;7.03;;;19.60;99.90;;;;;;5048553;28;20032;-57
2022/08/24 06:29:52;;;;;;;12.20;6.53;;;19.60;99.90;;;;;;5048208;28;20060;-57
2022/08/24 06:32:39;;;;;;;6.55;5.75;;;19.70;99.90;;;;;;5052993;28;20074;-57
2022/08/24 06:35:06;;;;;;;10.00;6.88;;;19.80;99.90;;;;;;5055970;28;20111;-57
2022/08/24 06:37:32;;;;;;;7.50;5.97;;;19.70;99.90;;;;;;5056929;28;20023;-56
2022/08/24 06:39:59;;;;;;;10.38;6.65;;;19.80;99.90;;;;;;5035799;28;20502;-57
2022/08/24 06:42:25;;;;;;;12.73;6.57;;;20.00;99.90;;;;;;5056147;28;20055;-57
2022/08/24 06:44:51;;;;;;;13.07;7.50;;;19.90;99.90;;;;;;5051209;28;20055;-56
2022/08/24 06:47:21;;;;;;;7.68;6.03;;;20.00;99.90;;;;;;5047482;28;20144;-57
2022/08/24 06:50:07;;;;;;;8.88;6.40;;;20.00;99.90;;;;;;5055193;28;20132;-57
2022/08/24 06:52:34;;;;;;;9.43;7.40;;;20.00;99.90;;;;;;5055529;28;20045;-57
2022/08/24 06:55:01;;;;;;;11.00;7.35;;;20.00;99.90;;;;;;5036923;28;20029;-57
2022/08/24 06:57:27;;;;;;;16.00;7.88;;;20.00;99.90;;;;;;5037358;28;20031;-57
2022/08/24 06:59:53;;;;;;;16.08;8.38;;;20.00;99.90;;;;;;5054969;28;20045;-57
2022/08/24 07:02:20;;;;;;;13.23;8.35;;;20.00;99.90;;;;;;5048873;28;20115;-57
2022/08/24 07:04:46;;;;;;;18.13;9.20;;;20.00;99.90;;;;;;5036983;28;20045;-57
2022/08/24 07:07:31;;;;;;;17.55;8.77;;;19.90;99.90;;;;;;5053570;28;20047;-57
2022/08/24 07:09:59;;;;;;;14.75;8.73;;;19.90;99.90;;;;;;5037230;28;20121;-57
2022/08/24 07:12:25;;;;;;;19.10;10.38;;;19.90;99.90;;;;;;5054042;28;20553;-57
2022/08/24 07:14:54;;;;;;;26.52;9.90;;;19.90;99.90;;;;;;5051117;28;20036;-57
2022/08/24 07:17:21;;;;;;;14.38;10.23;;;19.90;99.90;;;;;;5054056;28;20021;-57
2022/08/24 07:19:48;;;;;;;13.13;10.23;;;19.90;99.90;;;;;;5054515;28;20033;-57
2022/08/24 07:22:29;;;;;;;11.45;8.63;;;19.90;99.90;;;;;;5046504;28;20052;-57
2022/08/24 07:24:55;;;;;;;13.15;9.43;;;19.90;99.90;;;;;;5047421;28;20033;-57
2022/08/24 07:27:22;;;;;;;15.13;10.32;;;20.00;99.90;;;;;;5052384;28;20033;-57
2022/08/24 07:29:52;;;;;;;16.00;10.93;;;20.00;99.90;;;;;;5051393;28;20037;-57
2022/08/24 07:32:18;;;;;;;19.57;12.13;;;20.00;99.90;;;;;;5044402;28;20037;-57
2022/08/24 07:34:44;;;;;;;16.58;11.25;;;20.00;99.90;;;;;;5036827;28;20441;-57
2022/08/24 07:37:10;;;;;;;19.13;10.93;;;20.10;99.90;;;;;;5051288;28;20086;-57
2022/08/24 07:39:40;;;;;;;17.03;11.00;;;20.10;99.90;;;;;;5051616;28;20029;-57
2022/08/24 07:42:07;;;;;;;24.88;13.07;;;20.20;99.90;;;;;;5055534;28;20043;-56
2022/08/24 07:44:34;;;;;;;33.92;18.33;;;20.30;99.90;;;;;;5053015;28;20033;-57
2022/08/24 07:47:03;;;;;;;38.63;20.27;;;20.30;99.90;;;;;;5050810;28;20041;-56
2022/08/24 07:49:29;;;;;;;34.65;19.20;;;20.40;99.90;;;;;;5054784;28;20048;-57
2022/08/24 07:51:56;;;;;;;30.98;17.65;;;20.50;99.90;;;;;;5051131;28;20036;-57
2022/08/24 07:54:22;;;;;;;30.17;17.52;;;20.40;99.90;;;;;;5056942;28;20082;-57
2022/08/24 07:56:49;;;;;;;27.58;14.70;;;20.50;99.90;;;;;;5055710;28;20112;-57
2022/08/24 07:59:16;;;;;;;19.33;11.55;;;20.50;99.90;;;;;;5055281;28;20083;-56
2022/08/24 08:01:42;;;;;;;15.60;9.65;;;20.60;99.90;;;;;;5055183;28;20021;-57
2022/08/24 08:04:11;;;;;;;17.00;9.93;;;20.70;99.90;;;;;;5047686;28;20028;-56
2022/08/24 08:06:37;;;;;;;18.10;10.50;;;20.90;99.90;;;;;;5052855;28;20021;-57
2022/08/24 08:09:05;;;;;;;22.95;9.23;;;21.00;99.90;;;;;;5054912;28;20470;-56
2022/08/24 08:11:31;;;;;;;15.85;7.68;;;21.00;99.90;;;;;;5053811;28;20056;-56
2022/08/24 08:13:58;;;;;;;20.35;9.45;;;21.10;99.90;;;;;;5054742;28;20027;-57
2022/08/24 08:16:25;;;;;;;32.10;9.65;;;21.20;99.90;;;;;;5050659;28;20119;-57
2022/08/24 08:18:52;;;;;;;13.45;6.93;;;21.20;99.90;;;;;;5052357;28;20031;-56
2022/08/24 08:24:17;;;;;;;17.38;7.57;;;21.30;99.90;;;;;;5038838;28;20040;-57
2022/08/24 08:26:49;;;;;;;11.48;4.95;;;21.40;99.90;;;;;;5050828;28;20436;-57
2022/08/24 08:29:24;;;;;;;11.77;6.18;;;21.50;99.90;;;;;;5057140;28;20086;-57
2022/08/24 08:31:53;;;;;;;6.53;5.82;;;21.50;99.90;;;;;;5054186;28;20129;-57
2022/08/24 08:34:20;;;;;;;10.00;5.22;;;21.50;99.90;;;;;;5053439;28;20025;-57
2022/08/24 08:36:46;;;;;;;11.65;4.70;;;21.40;99.90;;;;;;5053611;28;20021;-57
2022/08/24 08:39:18;;;;;;;23.25;9.32;;;21.40;99.90;;;;;;5054240;28;20032;-57
2022/08/24 08:41:57;;;;;;;21.58;7.75;;;21.40;99.90;;;;;;5053953;28;20086;-57
2022/08/24 08:44:51;;;;;;;23.15;8.25;;;21.50;99.90;;;;;;5045701;28;20430;-57
2022/08/24 08:47:44;;;;;;;24.58;7.28;;;21.50;99.90;;;;;;5039044;28;20051;-57
2022/08/24 08:50:35;;;;;;;8.43;5.38;;;21.60;99.90;;;;;;5053418;28;20083;-57
2022/08/24 08:53:12;;;;;;;11.38;5.97;;;21.60;99.90;;;;;;5048736;28;20029;-57
2022/08/24 08:56:02;;;;;;;26.70;8.95;;;21.50;99.90;;;;;;5060156;28;20032;-57
2022/08/24 08:59:06;;;;;;;14.23;6.38;;;21.50;99.90;;;;;;5046371;28;20022;-57
2022/08/24 09:02:14;;;;;;;9.25;5.75;;;21.60;99.90;;;;;;5033989;28;20044;-57
2022/08/24 09:05:15;;;;;;;9.77;5.07;;;21.60;99.90;;;;;;5049876;28;20386;-57
2022/08/24 09:07:53;;;;;;;7.53;4.80;;;21.50;99.90;;;;;;5051527;28;20071;-57
2022/08/24 09:10:26;;;;;;;11.30;5.32;;;21.60;99.90;;;;;;5048757;28;20057;-57
2022/08/24 09:13:38;;;;;;;16.90;5.95;;;21.60;99.90;;;;;;5044881;28;20046;-57
2022/08/24 09:16:57;;;;;;;11.73;5.45;;;21.60;99.90;;;;;;5027607;28;20077;-57
2022/08/24 09:19:38;;;;;;;15.90;6.70;;;21.60;99.90;;;;;;5013226;28;20033;-57
2022/08/24 09:22:10;;;;;;;24.40;7.05;;;21.70;99.90;;;;;;5029500;28;20100;-57
2022/08/24 09:24:53;;;;;;;12.82;4.85;;;21.80;99.90;;;;;;4998787;28;20073;-57
2022/08/24 09:27:51;;;;;;;13.20;6.25;;;22.00;99.90;;;;;;5016197;28;20049;-57
2022/08/24 09:30:25;;;;;;;15.90;4.57;;;22.10;99.90;;;;;;5029772;28;20069;-57
2022/08/24 09:33:13;;;;;;;7.57;3.72;;;22.20;99.90;;;;;;5028730;28;20037;-57
2022/08/24 09:35:42;;;;;;;18.90;7.50;;;22.40;99.90;;;;;;5031713;28;20073;-57
2022/08/24 09:38:28;;;;;;;10.48;5.05;;;22.50;99.90;;;;;;5032348;28;20054;-57
2022/08/24 09:41:27;;;;;;;12.68;5.88;;;22.50;99.90;;;;;;5015844;28;20080;-57
2022/08/24 09:44:23;;;;;;;9.30;5.03;;;22.70;99.90;;;;;;5012796;28;20045;-57
2022/08/24 09:47:04;;;;;;;15.88;5.32;;;22.70;99.90;;;;;;5012542;28;20034;-57
2022/08/24 09:49:51;;;;;;;11.25;5.15;;;22.70;99.90;;;;;;5013119;28;20130;-57
2022/08/24 09:52:43;;;;;;;7.80;4.80;;;22.70;99.90;;;;;;5029244;28;20458;-57
2022/08/24 09:55:37;;;;;;;11.80;4.45;;;22.80;99.90;;;;;;5039319;28;20021;-57
2022/08/24 09:58:17;;;;;;;18.60;5.43;;;22.70;99.90;;;;;;5044039;28;20104;-57
2022/08/24 10:00:49;;;;;;;17.58;5.22;;;22.90;99.90;;;;;;5040348;28;20399;-57
2022/08/24 10:03:39;;;;;;;13.05;5.82;;;22.90;99.90;;;;;;5041095;28;20038;-57
2022/08/24 10:06:10;;;;;;;20.52;7.35;;;22.90;99.90;;;;;;5044306;28;20032;-57
2022/08/24 10:08:54;;;;;;;25.67;7.55;;;22.90;99.90;;;;;;5045001;28;20033;-57
2022/08/24 10:11:56;;;;;;;11.80;6.60;;;23.00;99.90;;;;;;5044931;28;20028;-57
2022/08/24 10:14:50;;;;;;;20.80;11.80;;;23.00;99.90;;;;;;5051152;28;20033;-57
2022/08/24 10:17:27;;;;;;;27.15;12.27;;;22.90;99.90;;;;;;5046372;28;20033;-57
2022/08/24 10:19:59;;;;;;;17.98;9.80;;;22.80;99.90;;;;;;5050044;28;20029;-57
2022/08/24 10:22:30;;;;;;;17.02;6.63;;;22.80;99.90;;;;;;5052701;28;20466;-57
2022/08/24 10:25:37;;;;;;;13.43;5.75;;;22.80;99.90;;;;;;5047012;28;20033;-57
2022/08/24 10:28:33;;;;;;;8.18;4.85;;;22.80;99.90;;;;;;5044124;28;20034;-57
2022/08/24 10:31:07;;;;;;;15.52;6.50;;;22.80;99.90;;;;;;5046448;28;20482;-57
2022/08/24 10:34:10;;;;;;;8.00;5.40;;;22.80;99.90;;;;;;5054288;28;20481;-57
2022/08/24 10:37:15;;;;;;;11.05;5.70;;;22.80;99.90;;;;;;5047219;28;20074;-57
2022/08/24 10:39:59;;;;;;;17.13;6.32;;;22.80;99.90;;;;;;5045717;28;20049;-57
2022/08/24 10:45:50;;;;;;;13.27;6.57;;;22.70;99.90;;;;;;5054057;28;20040;-57
2022/08/24 10:48:28;;;;;;;12.85;6.47;;;22.80;99.90;;;;;;5036585;28;20045;-57
2022/08/24 10:51:12;;;;;;;12.82;6.32;;;22.70;99.90;;;;;;5049472;28;20421;-57
2022/08/24 10:53:39;;;;;;;23.88;8.20;;;22.80;99.90;;;;;;5044777;28;20539;-57
2022/08/24 10:56:10;;;;;;;11.07;6.50;;;22.80;99.90;;;;;;5052961;28;20056;-57
2022/08/24 10:59:04;;;;;;;11.32;5.70;;;22.90;99.90;;;;;;5050957;28;20029;-57
2022/08/24 11:01:57;;;;;;;9.30;4.32;;;22.80;99.90;;;;;;5048428;28;20021;-57
2022/08/24 11:04:29;;;;;;;9.05;4.13;;;22.80;99.90;;;;;;5045258;28;20560;-57
2022/08/24 11:07:15;;;;;;;20.55;6.35;;;22.70;99.90;;;;;;5049225;28;20402;-57
2022/08/24 11:09:55;;;;;;;13.63;4.10;;;22.60;99.90;;;;;;5044229;28;20039;-57
2022/08/24 11:12:28;;;;;;;15.52;5.43;;;22.50;99.90;;;;;;5054475;28;20111;-57
2022/08/24 11:14:58;;;;;;;9.30;4.80;;;22.40;99.90;;;;;;5056106;28;20486;-57
2022/08/24 11:17:26;;;;;;;9.25;4.85;;;22.40;99.90;;;;;;5058020;28;20033;-57
2022/08/24 11:19:52;;;;;;;9.48;4.32;;;22.40;99.90;;;;;;5056139;28;20374;-57
2022/08/24 11:22:35;;;;;;;15.93;5.10;;;22.20;99.90;;;;;;5055534;28;20579;-57
2022/08/24 11:25:18;;;;;;;22.48;6.47;;;22.20;99.90;;;;;;5056255;28;20432;-57
2022/08/24 11:27:50;;;;;;;34.13;5.95;;;22.20;99.90;;;;;;5055192;28;20546;-57
2022/08/24 11:30:16;;;;;;;17.95;6.15;;;22.10;99.90;;;;;;5054680;28;20032;-57
2022/08/24 11:32:50;;;;;;;16.85;5.55;;;22.10;99.90;;;;;;5030519;28;20035;-57
2022/08/24 11:35:31;;;;;;;12.57;5.13;;;22.10;99.90;;;;;;5031205;28;20028;-57
2022/08/24 11:38:13;;;;;;;11.95;4.57;;;21.90;99.90;;;;;;5029226;28;20036;-57
2022/08/24 11:40:49;;;;;;;19.92;5.50;;;21.90;99.90;;;;;;5042522;28;20024;-57
2022/08/24 11:43:25;;;;;;;19.42;6.38;;;22.00;99.90;;;;;;5023782;28;20506;-57
2022/08/24 11:46:12;;;;;;;19.23;5.88;;;22.00;99.90;;;;;;5011639;28;20033;-57
2022/08/24 11:49:10;;;;;;;6.43;4.25;;;22.00;99.90;;;;;;5012395;28;20049;-57
2022/08/24 11:51:56;;;;;;;10.80;5.93;;;22.00;99.90;;;;;;5015115;28;20067;-57
2022/08/24 11:54:41;;;;;;;13.10;6.70;;;21.90;99.90;;;;;;5014669;28;20102;-57
2022/08/24 11:57:17;;;;;;;14.43;6.78;;;21.90;99.90;;;;;;5031441;28;20997;-57
2022/08/24 12:00:12;;;;;;;16.88;6.65;;;21.80;99.90;;;;;;5030859;28;20053;-58
2022/08/24 12:03:10;;;;;;;7.53;4.40;;;21.80;99.90;;;;;;5026715;28;20028;-57
2022/08/24 12:05:38;;;;;;;9.50;4.75;;;21.70;99.90;;;;;;5022028;28;21013;-57
2022/08/24 12:08:38;;;;;;;14.05;6.60;;;21.50;99.90;;;;;;5030913;28;20033;-57
2022/08/24 12:12:02;;;;;;;13.80;5.18;;;21.50;99.90;;;;;;5022007;28;20029;-57
2022/08/24 12:14:46;;;;;;;18.70;5.82;;;21.40;99.90;;;;;;5018297;28;20029;-57
2022/08/24 12:17:21;;;;;;;15.63;6.15;;;21.40;99.90;;;;;;5023401;28;20024;-57
2022/08/24 12:20:00;;;;;;;13.55;5.38;;;21.40;99.90;;;;;;5023416;28;20832;-57
2022/08/24 12:22:27;;;;;;;10.35;4.95;;;21.20;99.90;;;;;;5029263;28;20047;-57
2022/08/24 12:24:57;;;;;;;10.85;4.97;;;21.30;99.90;;;;;;5026555;28;20577;-57
2022/08/24 12:27:33;;;;;;;10.10;6.43;;;21.30;99.90;;;;;;5025521;28;20097;-57
2022/08/24 12:30:11;;;;;;;16.75;6.38;;;21.30;99.90;;;;;;5029904;28;20029;-57
2022/08/24 12:32:44;;;;;;;15.30;7.05;;;21.30;99.90;;;;;;5029536;28;20036;-57
2022/08/24 12:35:31;;;;;;;15.32;7.80;;;21.30;99.90;;;;;;5032335;28;20362;-58
2022/08/24 12:38:44;;;;;;;13.13;6.70;;;21.40;99.90;;;;;;5029925;28;20041;-57
2022/08/24 12:41:32;;;;;;;26.13;7.72;;;21.40;99.90;;;;;;4967817;28;20032;-57
2022/08/24 12:44:12;;;;;;;32.25;8.25;;;21.40;99.90;;;;;;4973754;28;21029;-57
2022/08/24 12:46:41;;;;;;;20.63;8.45;;;21.30;99.90;;;;;;4947525;28;20069;-57
2022/08/24 12:49:20;;;;;;;18.63;8.98;;;21.30;99.90;;;;;;4958097;28;20611;-57
2022/08/24 12:52:16;;;;;;;21.95;10.73;;;21.30;99.90;;;;;;4947736;28;20141;-57
2022/08/24 12:55:04;;;;;;;21.42;9.23;;;21.40;99.90;;;;;;4934970;28;20425;-57
2022/08/24 12:57:57;;;;;;;21.52;9.48;;;21.50;99.90;;;;;;4943165;28;20027;-57
2022/08/24 13:00:32;;;;;;;18.05;8.40;;;21.60;99.90;;;;;;4944883;28;20138;-57
2022/08/24 13:03:03;;;;;;;25.98;9.52;;;21.60;99.90;;;;;;4947413;28;20149;-57
2022/08/24 13:05:42;;;;;;;20.52;8.82;;;21.70;99.90;;;;;;4946250;28;20151;-57
2022/08/24 13:08:34;;;;;;;19.38;8.63;;;21.70;99.90;;;;;;4947688;28;20105;-57
2022/08/24 13:11:06;;;;;;;12.80;6.55;;;21.70;99.90;;;;;;4950669;28;20039;-57
2022/08/24 13:14:03;;;;;;;10.65;6.35;;;21.70;99.90;;;;;;4950613;28;20042;-57
2022/08/24 13:16:52;;;;;;;17.95;7.88;;;21.80;99.90;;;;;;5031707;28;20033;-57